Time;durP1;ratioP1;P1;durP2;ratioP2;P2;SDS_P1;SDS_P2;PMS_P1;PMS_P2;Temp;Humidity;BMP_temperature;BMP_pressure;BME280_temperature;BME280_humidity;BME280_pressure;Samples;Min_cycle;Max_cycle;Signal;HPM_P1;HPM_P2
2021/06/29 00:00:36;;;;;;;4.30;3.97;;;23.30;79.10;;;;;;4985207;28;20207;-92
2021/06/29 00:03:04;;;;;;;4.82;3.80;;;23.30;78.80;;;;;;4960413;28;20206;-91
2021/06/29 00:05:32;;;;;;;3.97;3.67;;;23.40;78.50;;;;;;4990353;28;20194;-91
2021/06/29 00:07:59;;;;;;;4.55;3.92;;;23.50;77.60;;;;;;4999906;28;20194;-92
2021/06/29 00:10:25;;;;;;;3.92;3.63;;;23.50;76.60;;;;;;5000012;28;20175;-92
2021/06/29 00:12:52;;;;;;;4.10;3.83;;;23.50;77.40;;;;;;4981703;28;20194;-91
2021/06/29 00:15:19;;;;;;;3.90;3.67;;;23.50;78.70;;;;;;4999497;28;20191;-91
2021/06/29 00:17:45;;;;;;;4.82;3.88;;;23.40;79.00;;;;;;4998037;28;20194;-93
2021/06/29 00:20:11;;;;;;;4.10;3.80;;;23.30;78.20;;;;;;4999799;28;20201;-92
2021/06/29 00:22:37;;;;;;;5.47;3.88;;;23.30;78.10;;;;;;5000076;28;20241;-92
2021/06/29 00:25:03;;;;;;;5.78;4.05;;;23.10;79.60;;;;;;4999330;28;20214;-90
2021/06/29 00:27:29;;;;;;;4.70;4.30;;;22.90;80.50;;;;;;4999745;28;20178;-90
2021/06/29 00:29:54;;;;;;;4.43;3.88;;;22.80;81.90;;;;;;4982111;28;20193;-92
2021/06/29 00:32:20;;;;;;;4.25;3.65;;;22.60;81.20;;;;;;4981569;28;20316;-92
2021/06/29 00:34:45;;;;;;;4.20;3.88;;;22.60;81.50;;;;;;4999902;28;20190;-92
2021/06/29 00:37:11;;;;;;;6.50;4.53;;;22.80;80.70;;;;;;4999003;28;20290;-92
2021/06/29 00:39:37;;;;;;;4.40;4.05;;;22.80;80.70;;;;;;4999281;28;20194;-92
2021/06/29 00:42:03;;;;;;;6.55;4.00;;;22.90;80.60;;;;;;4981847;28;20190;-92
2021/06/29 00:44:28;;;;;;;5.07;4.20;;;22.70;81.10;;;;;;4998749;28;20202;-92
2021/06/29 00:46:55;;;;;;;4.07;3.65;;;22.40;80.90;;;;;;4994665;28;20179;-92
2021/06/29 00:49:21;;;;;;;4.43;3.88;;;22.40;81.60;;;;;;4963392;28;20594;-91
2021/06/29 00:51:47;;;;;;;6.22;4.32;;;22.60;82.00;;;;;;4963668;28;20685;-92
2021/06/29 00:54:14;;;;;;;5.38;4.05;;;22.50;82.40;;;;;;4982347;28;20279;-92
2021/06/29 00:56:40;;;;;;;4.70;4.30;;;22.40;82.20;;;;;;5000468;28;20178;-92
2021/06/29 00:59:06;;;;;;;4.03;3.72;;;22.50;82.60;;;;;;5000357;28;20186;-92
2021/06/29 01:01:32;;;;;;;4.75;3.65;;;22.50;81.50;;;;;;5000306;28;20221;-93
2021/06/29 01:03:57;;;;;;;4.75;4.28;;;22.60;82.00;;;;;;4999872;28;20206;-91
2021/06/29 01:06:23;;;;;;;5.70;4.40;;;22.70;80.80;;;;;;4982418;28;20191;-93
2021/06/29 01:08:49;;;;;;;4.88;3.85;;;22.60;80.70;;;;;;5000188;28;20669;-93
2021/06/29 01:11:14;;;;;;;4.65;4.25;;;22.60;81.00;;;;;;4982793;28;20650;-92
2021/06/29 01:13:43;;;;;;;5.03;4.38;;;22.70;81.30;;;;;;5000055;28;20198;-92
2021/06/29 01:16:09;;;;;;;5.45;4.22;;;22.60;79.70;;;;;;4981866;28;20257;-92
2021/06/29 01:18:37;;;;;;;5.90;4.80;;;22.70;80.10;;;;;;4965531;28;20190;-92
2021/06/29 01:21:04;;;;;;;6.40;3.90;;;22.90;79.40;;;;;;4983140;28;20668;-91
2021/06/29 01:23:30;;;;;;;4.45;4.05;;;23.00;80.00;;;;;;4999685;28;20198;-92
2021/06/29 01:28:52;;;;;;;5.53;4.25;;;23.10;80.20;;;;;;4981933;28;20246;-93
2021/06/29 01:31:19;;;;;;;5.53;4.30;;;23.00;79.40;;;;;;4999157;28;20162;-92
2021/06/29 01:33:45;;;;;;;4.50;4.20;;;22.90;79.00;;;;;;4998469;28;20585;-92
2021/06/29 01:36:16;;;;;;;6.13;4.88;;;22.70;80.40;;;;;;4980588;28;20240;-92
2021/06/29 01:38:42;;;;;;;9.63;4.60;;;22.30;82.50;;;;;;4983662;28;20197;-92
2021/06/29 01:41:09;;;;;;;7.18;4.43;;;22.10;84.20;;;;;;4984720;28;20253;-91
2021/06/29 01:43:44;;;;;;;9.43;4.80;;;21.80;83.50;;;;;;5002121;28;20198;-92
2021/06/29 01:46:10;;;;;;;9.00;4.55;;;21.60;85.50;;;;;;4986017;28;20213;-91
2021/06/29 01:48:36;;;;;;;4.78;4.38;;;21.40;85.70;;;;;;4968893;28;20182;-92
2021/06/29 01:51:02;;;;;;;5.32;4.70;;;21.10;86.70;;;;;;4968059;28;20188;-92
2021/06/29 01:53:27;;;;;;;5.35;4.85;;;20.90;88.10;;;;;;5001415;28;20209;-91
2021/06/29 01:55:53;;;;;;;5.57;4.38;;;20.70;89.30;;;;;;5002175;28;20183;-92
2021/06/29 01:58:27;;;;;;;5.07;4.68;;;20.70;89.50;;;;;;5001950;28;20210;-92
2021/06/29 02:00:54;;;;;;;4.43;4.03;;;20.70;89.70;;;;;;5001437;28;20209;-92
2021/06/29 02:03:20;;;;;;;6.88;4.80;;;20.80;89.40;;;;;;4984269;28;20222;-93
2021/06/29 02:05:45;;;;;;;9.43;5.05;;;20.80;88.30;;;;;;4987695;28;20221;-92
2021/06/29 02:08:11;;;;;;;7.00;4.60;;;20.90;88.20;;;;;;4983895;28;20197;-92
2021/06/29 02:10:37;;;;;;;4.40;4.00;;;20.80;89.20;;;;;;4980980;28;20255;-93
2021/06/29 02:13:03;;;;;;;5.38;4.97;;;20.90;88.10;;;;;;4982273;28;20205;-92
2021/06/29 02:15:29;;;;;;;5.93;4.82;;;21.10;88.00;;;;;;4992542;28;20206;-93
2021/06/29 02:17:55;;;;;;;7.32;5.10;;;21.20;86.50;;;;;;5002186;28;20662;-92
2021/06/29 02:20:20;;;;;;;5.90;4.68;;;21.20;86.50;;;;;;4983813;28;20229;-92
2021/06/29 02:22:46;;;;;;;4.95;4.55;;;21.20;87.30;;;;;;4983696;28;20197;-92
2021/06/29 02:25:13;;;;;;;5.03;4.43;;;21.20;87.10;;;;;;5011588;28;20216;-92
2021/06/29 02:27:39;;;;;;;4.53;4.20;;;21.30;86.70;;;;;;4979676;28;20186;-93
2021/06/29 02:30:07;;;;;;;5.05;4.18;;;21.30;86.50;;;;;;4997053;28;20897;-92
2021/06/29 02:32:33;;;;;;;7.35;4.63;;;21.30;86.50;;;;;;4982551;28;20683;-92
2021/06/29 02:34:58;;;;;;;4.60;4.22;;;21.40;85.60;;;;;;4981868;28;20189;-93
2021/06/29 02:37:25;;;;;;;5.30;4.80;;;21.20;86.80;;;;;;4999665;28;20177;-93
2021/06/29 02:39:51;;;;;;;8.18;4.82;;;21.30;85.80;;;;;;4999310;28;20174;-92
2021/06/29 02:42:18;;;;;;;4.53;4.13;;;21.30;85.20;;;;;;4998526;28;20204;-93
2021/06/29 02:44:47;;;;;;;6.70;4.30;;;21.40;84.70;;;;;;4981307;28;20253;-93
2021/06/29 02:47:13;;;;;;;4.93;4.53;;;21.60;84.80;;;;;;4982400;28;20236;-92
2021/06/29 02:49:39;;;;;;;5.10;4.10;;;21.50;84.40;;;;;;4998481;28;20217;-93
2021/06/29 02:52:06;;;;;;;4.18;3.88;;;21.60;83.50;;;;;;4965929;28;20178;-93
2021/06/29 02:54:31;;;;;;;8.52;5.00;;;21.80;83.40;;;;;;4998148;28;20727;-92
2021/06/29 02:56:57;;;;;;;6.60;5.05;;;21.50;83.10;;;;;;4982413;28;20285;-92
2021/06/29 02:59:24;;;;;;;4.65;4.25;;;21.20;84.70;;;;;;4999881;28;20185;-92
2021/06/29 03:01:49;;;;;;;6.43;4.45;;;21.20;85.60;;;;;;4999487;28;20661;-92
2021/06/29 03:04:15;;;;;;;4.38;3.97;;;21.10;84.80;;;;;;4999509;28;20276;-92
2021/06/29 03:06:41;;;;;;;4.50;4.07;;;21.20;85.20;;;;;;4999363;28;20189;-92
2021/06/29 03:09:08;;;;;;;4.40;4.00;;;21.40;84.40;;;;;;4999444;28;20278;-93
2021/06/29 03:11:33;;;;;;;6.40;4.25;;;21.60;83.30;;;;;;4999217;28;20233;-92
2021/06/29 03:13:59;;;;;;;4.90;4.20;;;21.70;83.00;;;;;;4998755;28;20195;-93
2021/06/29 03:16:25;;;;;;;4.30;3.80;;;21.60;82.70;;;;;;4999911;28;20220;-91
2021/06/29 03:18:51;;;;;;;4.07;3.70;;;21.70;81.90;;;;;;4999334;28;20198;-92
2021/06/29 03:21:18;;;;;;;4.18;3.88;;;21.60;81.90;;;;;;4999470;28;20194;-92
2021/06/29 03:23:43;;;;;;;6.70;4.00;;;21.60;82.60;;;;;;4999571;28;20210;-91
2021/06/29 03:26:09;;;;;;;4.57;3.90;;;21.70;81.90;;;;;;4999239;28;20210;-91
2021/06/29 03:28:35;;;;;;;4.18;3.78;;;21.70;81.30;;;;;;4980955;28;20248;-93
2021/06/29 03:31:00;;;;;;;5.43;3.78;;;21.70;81.00;;;;;;4981038;28;20186;-92
2021/06/29 03:33:26;;;;;;;4.20;3.80;;;21.70;80.70;;;;;;4981400;28;20198;-92
2021/06/29 03:35:52;;;;;;;4.32;3.92;;;21.60;81.20;;;;;;4981803;28;20194;-91
2021/06/29 03:38:17;;;;;;;3.92;3.67;;;21.70;81.00;;;;;;4989490;28;20202;-91
2021/06/29 03:40:43;;;;;;;5.20;3.70;;;21.50;81.60;;;;;;4981692;28;20527;-93
2021/06/29 03:43:10;;;;;;;5.28;3.95;;;21.50;81.70;;;;;;4982704;28;20199;-92
2021/06/29 03:45:35;;;;;;;4.32;3.85;;;21.50;81.90;;;;;;4980235;28;20206;-92
2021/06/29 03:48:01;;;;;;;4.00;3.70;;;21.50;81.90;;;;;;4994566;28;20212;-93
2021/06/29 03:50:27;;;;;;;3.95;3.65;;;21.60;81.20;;;;;;4998427;28;20201;-91
2021/06/29 03:52:53;;;;;;;4.13;3.72;;;21.70;81.20;;;;;;4999699;28;20233;-92
2021/06/29 03:55:19;;;;;;;4.00;3.33;;;21.60;80.90;;;;;;4980795;28;20181;-91
2021/06/29 03:57:45;;;;;;;5.82;3.85;;;21.50;81.20;;;;;;4980776;28;20689;-93
2021/06/29 04:00:11;;;;;;;4.13;3.40;;;21.40;80.90;;;;;;4988787;28;20175;-92
2021/06/29 04:02:37;;;;;;;3.97;3.60;;;21.50;81.20;;;;;;4960995;28;20237;-93
2021/06/29 04:05:07;;;;;;;3.72;3.35;;;21.50;80.60;;;;;;4978575;28;20214;-90
2021/06/29 04:07:33;;;;;;;3.60;3.35;;;21.50;80.60;;;;;;4984388;28;20190;-92
2021/06/29 04:09:58;;;;;;;4.22;3.50;;;21.60;80.70;;;;;;4979702;28;20194;-92
2021/06/29 04:12:26;;;;;;;3.67;3.33;;;21.70;80.20;;;;;;4981467;28;20225;-91
2021/06/29 04:14:52;;;;;;;5.00;3.65;;;21.80;79.60;;;;;;4997143;28;20198;-93
2021/06/29 04:17:18;;;;;;;3.80;3.50;;;22.00;79.30;;;;;;4999183;28;20182;-94
2021/06/29 04:19:44;;;;;;;3.63;3.30;;;22.00;78.80;;;;;;4981795;28;20716;-92
2021/06/29 04:22:10;;;;;;;4.60;3.30;;;21.90;78.50;;;;;;5007051;28;20194;-89
2021/06/29 04:24:35;;;;;;;4.07;3.50;;;21.90;77.90;;;;;;5015249;28;20218;-92
2021/06/29 04:27:02;;;;;;;6.13;3.22;;;21.90;78.00;;;;;;4990779;28;20193;-90
2021/06/29 04:29:27;;;;;;;3.40;3.10;;;22.00;78.20;;;;;;5003375;28;20201;-93
2021/06/29 04:31:53;;;;;;;3.50;3.20;;;22.10;77.40;;;;;;5002325;28;20194;-93
2021/06/29 04:34:19;;;;;;;4.10;3.20;;;22.20;77.10;;;;;;4993094;28;20206;-92
2021/06/29 04:36:45;;;;;;;4.97;3.45;;;22.20;76.20;;;;;;4983209;28;20186;-93
2021/06/29 04:39:11;;;;;;;3.88;3.58;;;21.90;77.70;;;;;;4998149;28;20266;-93
2021/06/29 04:41:37;;;;;;;3.50;3.30;;;21.70;77.80;;;;;;4980674;28;20186;-92
2021/06/29 04:44:04;;;;;;;3.28;3.08;;;21.70;78.80;;;;;;4981804;28;20310;-92
2021/06/29 04:46:30;;;;;;;3.70;3.40;;;21.70;78.20;;;;;;4978846;28;20665;-93
2021/06/29 04:48:56;;;;;;;4.07;3.65;;;21.70;78.20;;;;;;4990081;28;20206;-92
2021/06/29 04:51:22;;;;;;;6.22;3.58;;;21.70;78.30;;;;;;4994735;28;20186;-90
2021/06/29 04:53:47;;;;;;;3.95;3.17;;;21.50;78.70;;;;;;4995645;28;20220;-91
2021/06/29 04:56:19;;;;;;;5.47;3.55;;;21.10;80.40;;;;;;4974852;28;20249;-91
2021/06/29 04:58:52;;;;;;;4.70;3.70;;;20.90;81.60;;;;;;4976075;28;20226;-91
2021/06/29 05:01:19;;;;;;;3.70;3.40;;;21.10;81.20;;;;;;4992724;28;20193;-91
2021/06/29 05:03:44;;;;;;;3.45;3.25;;;21.10;81.20;;;;;;4995513;28;20550;-91
2021/06/29 05:06:10;;;;;;;5.20;3.55;;;21.20;80.50;;;;;;5003926;28;20267;-91
2021/06/29 05:08:35;;;;;;;3.40;3.20;;;21.30;80.90;;;;;;4980109;28;20186;-93
2021/06/29 05:11:01;;;;;;;3.65;3.33;;;21.50;79.80;;;;;;4996548;28;20245;-92
2021/06/29 05:13:27;;;;;;;4.13;3.70;;;21.80;78.70;;;;;;4975363;28;20753;-91
2021/06/29 05:15:53;;;;;;;4.20;3.05;;;21.90;78.50;;;;;;4990978;28;20198;-91
2021/06/29 05:18:18;;;;;;;3.83;3.53;;;21.90;77.30;;;;;;4996613;28;20205;-91
2021/06/29 05:20:44;;;;;;;3.50;3.20;;;22.20;77.10;;;;;;4996715;28;20234;-91
2021/06/29 05:23:10;;;;;;;3.95;3.42;;;22.30;76.60;;;;;;4996409;28;20210;-92
2021/06/29 05:25:36;;;;;;;7.90;4.63;;;22.50;75.90;;;;;;4997411;28;20217;-93
2021/06/29 05:28:02;;;;;;;4.80;4.20;;;22.50;75.50;;;;;;4999365;28;20178;-92
2021/06/29 05:30:28;;;;;;;4.10;3.70;;;22.50;76.10;;;;;;4996334;28;21248;-92
2021/06/29 05:32:54;;;;;;;3.72;3.25;;;22.60;77.20;;;;;;4986380;28;20218;-92
2021/06/29 05:35:20;;;;;;;4.28;3.67;;;22.60;77.80;;;;;;4978047;28;20472;-92
2021/06/29 05:37:46;;;;;;;4.85;3.40;;;22.50;78.60;;;;;;4993398;28;20510;-92
2021/06/29 05:40:11;;;;;;;4.53;3.35;;;22.60;78.20;;;;;;4994850;28;20234;-91
2021/06/29 05:42:37;;;;;;;5.63;3.58;;;22.70;78.60;;;;;;4994020;28;20708;-91
2021/06/29 05:45:04;;;;;;;6.25;3.92;;;22.60;77.10;;;;;;4994921;28;20210;-91
2021/06/29 05:47:32;;;;;;;4.80;3.78;;;22.50;77.00;;;;;;4988692;28;20624;-92
2021/06/29 05:49:58;;;;;;;4.13;3.72;;;22.30;77.00;;;;;;4972235;28;20273;-92
2021/06/29 05:52:25;;;;;;;4.30;3.55;;;22.20;77.10;;;;;;4985225;28;20249;-92
2021/06/29 05:54:51;;;;;;;4.20;3.70;;;22.00;77.20;;;;;;4968272;28;20189;-92
2021/06/29 05:57:17;;;;;;;3.40;3.15;;;21.80;78.70;;;;;;4989911;28;20237;-92
2021/06/29 05:59:43;;;;;;;4.50;4.10;;;22.00;78.70;;;;;;4987153;28;20202;-92
2021/06/29 06:02:10;;;;;;;5.55;4.55;;;22.10;78.30;;;;;;5002780;28;20806;-91
2021/06/29 06:04:37;;;;;;;4.50;4.20;;;22.20;78.50;;;;;;5002920;28;20236;-91
2021/06/29 06:07:03;;;;;;;7.55;4.25;;;22.20;77.80;;;;;;4986834;28;20179;-92
2021/06/29 06:09:29;;;;;;;7.50;3.90;;;22.10;78.30;;;;;;4986367;28;20184;-92
2021/06/29 06:11:55;;;;;;;4.55;4.13;;;22.00;78.60;;;;;;4986626;28;20190;-92
2021/06/29 06:14:21;;;;;;;5.32;4.82;;;21.80;80.10;;;;;;5006192;28;20182;-92
2021/06/29 06:16:46;;;;;;;5.18;3.92;;;21.90;80.00;;;;;;4987679;28;20205;-92
2021/06/29 06:19:12;;;;;;;5.80;4.47;;;21.90;79.70;;;;;;4996606;28;20182;-92
2021/06/29 06:21:38;;;;;;;4.93;4.10;;;21.80;79.50;;;;;;4979022;28;20216;-93
2021/06/29 06:24:05;;;;;;;4.72;4.10;;;21.70;80.70;;;;;;4979478;28;20210;-92
2021/06/29 06:26:34;;;;;;;5.25;4.22;;;21.70;80.50;;;;;;4994568;28;20712;-90
2021/06/29 06:29:00;;;;;;;4.53;4.13;;;21.80;80.30;;;;;;5000299;28;20207;-92
2021/06/29 06:31:26;;;;;;;4.57;4.13;;;21.90;79.30;;;;;;4997586;28;20205;-93
2021/06/29 06:33:51;;;;;;;4.22;3.90;;;21.80;80.00;;;;;;4973502;28;20205;-92
2021/06/29 06:36:17;;;;;;;4.22;3.92;;;21.80;79.80;;;;;;4998969;28;20226;-89
2021/06/29 06:38:43;;;;;;;4.45;4.13;;;21.70;80.80;;;;;;4999857;28;20673;-93
2021/06/29 06:41:13;;;;;;;4.80;4.40;;;21.80;79.60;;;;;;5005914;28;20278;-91
2021/06/29 06:43:40;;;;;;;4.10;3.80;;;21.80;80.10;;;;;;5007075;28;20226;-92
2021/06/29 06:46:08;;;;;;;4.32;3.95;;;21.80;78.40;;;;;;5007371;28;20208;-92
2021/06/29 06:48:34;;;;;;;4.65;4.20;;;21.70;78.10;;;;;;5007145;28;20184;-92
2021/06/29 06:50:59;;;;;;;4.53;4.13;;;21.70;79.00;;;;;;4986181;28;20239;-91
2021/06/29 06:53:25;;;;;;;6.00;4.28;;;21.60;79.50;;;;;;4989985;28;20251;-92
2021/06/29 06:55:51;;;;;;;4.68;4.35;;;21.60;79.90;;;;;;5006804;28;20197;-93
2021/06/29 06:58:18;;;;;;;5.03;4.13;;;21.70;80.70;;;;;;4999578;28;20185;-92
2021/06/29 07:00:43;;;;;;;4.65;4.22;;;21.70;78.90;;;;;;4995448;28;20683;-92
2021/06/29 07:03:09;;;;;;;5.88;4.28;;;21.90;79.70;;;;;;4959760;28;20207;-92
2021/06/29 07:05:35;;;;;;;8.43;4.38;;;21.90;79.30;;;;;;4978523;28;20202;-93
2021/06/29 07:08:04;;;;;;;4.63;4.22;;;22.00;78.80;;;;;;4999550;28;20190;-92
2021/06/29 07:10:30;;;;;;;7.72;4.60;;;22.10;77.60;;;;;;4971385;28;20282;-94
2021/06/29 07:12:55;;;;;;;6.43;4.07;;;22.30;76.50;;;;;;4984635;28;20250;-93
2021/06/29 07:15:21;;;;;;;6.43;4.40;;;22.40;76.00;;;;;;4972485;28;20681;-92
2021/06/29 07:17:47;;;;;;;4.05;3.65;;;22.20;75.80;;;;;;4991086;28;20193;-93
2021/06/29 07:20:14;;;;;;;5.18;4.10;;;22.30;75.90;;;;;;4997274;28;20674;-93
2021/06/29 07:22:40;;;;;;;4.75;4.35;;;22.30;76.30;;;;;;4989276;28;20228;-94
2021/06/29 07:25:07;;;;;;;4.28;3.70;;;22.20;75.60;;;;;;4988916;28;20285;-93
2021/06/29 07:27:33;;;;;;;5.03;4.50;;;22.30;75.20;;;;;;4999703;28;20185;-93
2021/06/29 07:29:59;;;;;;;4.57;4.18;;;22.30;75.40;;;;;;4982943;28;20191;-93
2021/06/29 07:32:25;;;;;;;4.03;3.55;;;22.50;75.70;;;;;;4972477;28;20303;-93
2021/06/29 07:34:51;;;;;;;4.40;4.00;;;22.70;74.50;;;;;;4990549;28;20198;-93
2021/06/29 07:37:17;;;;;;;4.10;3.80;;;22.90;73.00;;;;;;4986926;28;20170;-93
2021/06/29 07:39:43;;;;;;;5.30;3.97;;;22.90;72.90;;;;;;4993243;28;20202;-93
2021/06/29 07:42:09;;;;;;;4.32;3.97;;;23.00;73.80;;;;;;4970200;28;20182;-93
2021/06/29 07:44:34;;;;;;;4.47;4.18;;;23.00;73.30;;;;;;4988399;28;20245;-92
2021/06/29 07:47:00;;;;;;;4.57;3.83;;;23.10;73.50;;;;;;4988830;28;20177;-93
2021/06/29 07:49:27;;;;;;;4.60;4.28;;;23.20;73.00;;;;;;4973366;28;20205;-93
2021/06/29 07:51:53;;;;;;;4.90;4.20;;;23.30;74.20;;;;;;5005969;28;20313;-93
2021/06/29 07:54:19;;;;;;;4.03;3.60;;;23.20;73.80;;;;;;4989928;28;20191;-93
2021/06/29 07:56:45;;;;;;;5.35;4.03;;;23.30;72.50;;;;;;4989953;28;20182;-93
2021/06/29 07:59:11;;;;;;;3.80;3.47;;;23.30;72.30;;;;;;5005937;28;20190;-93
2021/06/29 08:01:37;;;;;;;3.90;3.60;;;23.60;71.90;;;;;;4988818;28;20198;-93
2021/06/29 08:04:03;;;;;;;4.97;3.90;;;23.80;72.50;;;;;;4971144;28;20237;-92
2021/06/29 08:06:29;;;;;;;3.60;3.30;;;23.90;70.30;;;;;;5006171;28;20175;-93
2021/06/29 08:08:55;;;;;;;3.47;3.20;;;23.90;69.40;;;;;;5005785;28;20183;-93
2021/06/29 08:11:21;;;;;;;4.32;3.65;;;23.90;68.30;;;;;;4994093;28;20178;-92
2021/06/29 08:13:47;;;;;;;4.35;3.55;;;23.90;68.50;;;;;;5004419;28;20210;-94
2021/06/29 08:16:13;;;;;;;7.50;3.63;;;23.90;68.40;;;;;;5004970;28;20638;-93
2021/06/29 08:18:39;;;;;;;4.90;3.40;;;23.80;68.70;;;;;;4988895;28;20187;-93
2021/06/29 08:21:06;;;;;;;6.10;3.70;;;23.70;69.60;;;;;;5005723;28;20190;-93
2021/06/29 08:23:32;;;;;;;4.10;3.65;;;23.70;69.10;;;;;;4985975;28;20261;-93
2021/06/29 08:25:59;;;;;;;4.90;3.78;;;23.80;67.70;;;;;;4994988;28;20202;-93
2021/06/29 08:28:26;;;;;;;4.28;3.88;;;23.80;67.60;;;;;;4986383;28;20217;-93
2021/06/29 08:30:52;;;;;;;3.92;3.58;;;23.80;68.30;;;;;;4984410;28;20261;-93
2021/06/29 08:33:22;;;;;;;3.85;3.47;;;23.90;67.00;;;;;;4969505;28;20207;-93
2021/06/29 08:35:49;;;;;;;3.55;3.25;;;24.10;65.40;;;;;;4985696;28;20194;-93
2021/06/29 08:38:17;;;;;;;4.25;3.17;;;24.10;65.50;;;;;;4986119;28;20263;-93
2021/06/29 08:40:42;;;;;;;3.67;3.35;;;24.40;64.40;;;;;;4986804;28;20183;-93
2021/06/29 08:43:10;;;;;;;3.53;3.30;;;24.60;65.20;;;;;;4984439;28;20270;-93
2021/06/29 08:45:36;;;;;;;3.10;2.90;;;24.90;63.60;;;;;;4986473;28;20288;-92
2021/06/29 08:48:03;;;;;;;3.47;2.95;;;25.10;61.50;;;;;;4989208;28;20193;-93
2021/06/29 08:50:30;;;;;;;4.25;3.45;;;25.20;60.10;;;;;;4979300;28;20197;-93
2021/06/29 08:53:02;;;;;;;6.20;3.70;;;25.30;62.00;;;;;;4971571;28;20294;-92
2021/06/29 08:55:47;;;;;;;3.63;3.33;;;25.30;61.80;;;;;;5003183;28;20187;-93
2021/06/29 08:58:18;;;;;;;3.95;3.38;;;25.00;62.00;;;;;;4978660;28;20183;-93
2021/06/29 09:00:45;;;;;;;3.28;3.00;;;25.00;63.60;;;;;;4967285;28;20198;-92
2021/06/29 09:03:11;;;;;;;3.28;2.97;;;25.00;63.70;;;;;;4988375;28;20219;-93
2021/06/29 09:05:42;;;;;;;3.33;3.13;;;25.20;61.30;;;;;;4978318;28;20225;-93
2021/06/29 09:08:10;;;;;;;3.90;3.28;;;25.40;60.50;;;;;;4987964;28;20190;-93
2021/06/29 09:10:39;;;;;;;3.40;3.20;;;25.60;60.70;;;;;;4954343;28;20183;-92
2021/06/29 09:13:06;;;;;;;3.78;3.55;;;25.60;62.60;;;;;;4981698;28;20210;-93
2021/06/29 09:15:43;;;;;;;3.95;3.65;;;25.70;60.70;;;;;;4978729;28;20194;-92
2021/06/29 09:18:10;;;;;;;3.88;3.58;;;25.70;61.30;;;;;;4992484;28;20178;-93
2021/06/29 09:20:38;;;;;;;3.22;3.03;;;25.80;57.90;;;;;;4981684;28;20199;-92
2021/06/29 09:23:35;;;;;;;3.28;2.90;;;25.80;58.10;;;;;;4995295;28;20203;-93
2021/06/29 09:26:00;;;;;;;3.17;2.97;;;25.80;58.00;;;;;;5006355;28;20190;-93
2021/06/29 09:28:34;;;;;;;3.42;3.13;;;25.90;58.40;;;;;;4998693;28;20277;-92
2021/06/29 09:31:05;;;;;;;3.95;3.38;;;26.00;61.30;;;;;;4994647;28;20189;-93
2021/06/29 09:33:34;;;;;;;3.50;3.30;;;25.90;61.10;;;;;;4995832;28;20280;-92
2021/06/29 09:36:06;;;;;;;4.00;3.60;;;25.90;59.80;;;;;;4987168;28;20185;-92
2021/06/29 09:38:35;;;;;;;5.05;3.20;;;25.90;59.40;;;;;;4975650;28;20194;-93
2021/06/29 09:41:08;;;;;;;3.72;3.53;;;25.90;59.30;;;;;;4971612;28;20194;-93
2021/06/29 09:43:42;;;;;;;3.83;3.47;;;26.10;59.90;;;;;;4978325;28;20265;-93
2021/06/29 09:46:10;;;;;;;4.25;3.20;;;26.40;58.50;;;;;;4996840;28;20214;-92
2021/06/29 09:48:38;;;;;;;4.55;3.42;;;26.50;57.60;;;;;;4996339;28;20184;-92
2021/06/29 09:51:26;;;;;;;4.10;3.70;;;26.80;57.70;;;;;;4971640;28;20193;-92
2021/06/29 09:53:54;;;;;;;3.60;3.30;;;27.10;57.50;;;;;;4978802;28;20214;-92
2021/06/29 09:56:31;;;;;;;3.55;3.28;;;27.20;56.90;;;;;;4972541;28;20191;-92
2021/06/29 09:58:59;;;;;;;3.65;3.45;;;27.20;55.90;;;;;;4981566;28;20193;-92
2021/06/29 10:01:30;;;;;;;4.13;3.20;;;26.90;55.60;;;;;;4982384;28;20187;-92
2021/06/29 10:04:03;;;;;;;3.80;3.50;;;26.70;56.40;;;;;;4967594;28;20228;-92
2021/06/29 10:06:31;;;;;;;3.53;3.33;;;26.80;55.00;;;;;;4987065;28;20202;-92
2021/06/29 10:09:14;;;;;;;4.03;3.35;;;27.00;56.90;;;;;;4999541;28;20579;-92
2021/06/29 10:11:53;;;;;;;3.90;3.60;;;27.40;56.90;;;;;;4963407;28;20285;-92
2021/06/29 10:14:24;;;;;;;4.18;3.63;;;27.70;53.80;;;;;;4990401;28;20213;-93
2021/06/29 10:16:52;;;;;;;3.88;3.58;;;27.80;53.50;;;;;;4976593;28;20813;-91
2021/06/29 10:19:36;;;;;;;3.88;3.58;;;28.10;52.00;;;;;;4990959;28;20346;-92
2021/06/29 10:22:05;;;;;;;3.83;3.53;;;28.40;52.30;;;;;;4996601;28;20174;-91
2021/06/29 10:24:34;;;;;;;3.60;3.30;;;28.50;51.10;;;;;;4968961;28;20215;-92
2021/06/29 10:27:02;;;;;;;4.03;3.72;;;28.70;50.40;;;;;;4994226;28;20285;-91
2021/06/29 10:29:30;;;;;;;3.92;3.63;;;28.50;49.90;;;;;;4992301;28;20204;-92
2021/06/29 10:32:13;;;;;;;3.70;3.50;;;28.50;51.00;;;;;;4987554;28;20210;-92
2021/06/29 10:34:39;;;;;;;3.53;3.28;;;28.30;51.70;;;;;;5007452;28;20257;-91
2021/06/29 10:37:06;;;;;;;3.40;3.10;;;28.20;51.00;;;;;;4994993;28;20205;-92
2021/06/29 10:39:33;;;;;;;3.88;3.50;;;28.50;49.00;;;;;;4993304;28;20187;-92
2021/06/29 10:42:05;;;;;;;3.53;3.33;;;28.70;48.20;;;;;;4978363;28;20187;-92
2021/06/29 10:44:38;;;;;;;3.85;3.65;;;29.00;49.00;;;;;;4980748;28;20620;-92
2021/06/29 10:47:23;;;;;;;3.72;3.53;;;29.20;48.10;;;;;;4977089;28;20189;-92
2021/06/29 10:49:53;;;;;;;3.80;3.60;;;29.30;47.90;;;;;;4977107;28;20202;-92
2021/06/29 10:52:22;;;;;;;4.13;3.65;;;29.40;47.70;;;;;;4959428;28;20214;-92
2021/06/29 10:54:51;;;;;;;4.13;3.78;;;29.30;45.30;;;;;;4983972;28;20278;-92
2021/06/29 10:57:19;;;;;;;4.65;3.67;;;29.20;46.80;;;;;;4984787;28;20214;-92
2021/06/29 10:59:50;;;;;;;3.90;3.60;;;29.00;47.40;;;;;;4995225;28;20194;-92
2021/06/29 11:02:27;;;;;;;3.95;3.60;;;29.30;45.50;;;;;;4980153;28;20210;-92
2021/06/29 11:04:58;;;;;;;3.97;3.60;;;29.10;46.00;;;;;;4974257;28;20279;-92
2021/06/29 11:07:27;;;;;;;7.03;3.78;;;29.30;45.70;;;;;;4974754;28;20202;-92
2021/06/29 11:10:02;;;;;;;3.70;3.35;;;29.20;45.30;;;;;;4996995;28;20179;-92
2021/06/29 11:12:31;;;;;;;3.60;3.30;;;29.40;45.80;;;;;;4976955;28;20202;-92
2021/06/29 11:15:08;;;;;;;3.42;3.22;;;29.60;44.50;;;;;;4981732;28;20720;-92
2021/06/29 11:18:00;;;;;;;4.68;3.67;;;29.40;45.60;;;;;;4977971;28;20465;-93
2021/06/29 11:20:38;;;;;;;3.72;3.47;;;29.70;42.70;;;;;;4978097;28;20557;-92
2021/06/29 11:23:06;;;;;;;6.82;4.20;;;29.90;43.20;;;;;;5002186;28;20214;-92
2021/06/29 11:25:35;;;;;;;4.18;3.78;;;29.90;45.40;;;;;;4999904;28;20268;-92
2021/06/29 11:28:07;;;;;;;5.55;3.95;;;29.70;44.60;;;;;;5002486;28;20328;-92
2021/06/29 11:30:52;;;;;;;3.90;3.70;;;29.40;46.30;;;;;;4990826;28;20209;-91
2021/06/29 11:33:44;;;;;;;3.88;3.63;;;29.20;46.50;;;;;;4967792;28;20827;-92
2021/06/29 11:36:25;;;;;;;3.97;3.70;;;28.90;48.20;;;;;;4983329;28;20746;-92
2021/06/29 11:38:55;;;;;;;3.70;3.40;;;29.00;47.70;;;;;;4979706;28;20179;-92
2021/06/29 11:41:32;;;;;;;3.80;3.55;;;28.90;46.20;;;;;;4989100;28;20197;-92
2021/06/29 11:44:07;;;;;;;3.97;3.70;;;28.70;47.60;;;;;;4984214;28;20249;-92
2021/06/29 11:46:55;;;;;;;3.75;3.45;;;28.40;50.20;;;;;;4983203;28;20635;-92
2021/06/29 11:49:30;;;;;;;3.95;3.65;;;28.10;51.30;;;;;;4988366;28;20187;-91
2021/06/29 11:51:59;;;;;;;4.13;3.63;;;27.90;50.90;;;;;;4980949;28;20194;-93
2021/06/29 11:54:54;;;;;;;4.78;3.72;;;27.70;50.40;;;;;;4953274;28;20281;-91
2021/06/29 11:57:43;;;;;;;3.47;3.20;;;27.20;52.10;;;;;;4988744;28;20549;-92
2021/06/29 12:00:31;;;;;;;3.50;3.20;;;26.60;54.20;;;;;;4986137;28;20647;-91
2021/06/29 12:03:03;;;;;;;6.93;3.00;;;26.20;53.70;;;;;;4973616;28;20213;-91
2021/06/29 12:05:32;;;;;;;4.97;2.47;;;24.70;55.90;;;;;;4995842;28;20730;-91
2021/06/29 12:08:04;;;;;;;3.17;2.25;;;23.90;58.10;;;;;;4951544;28;20242;-92
2021/06/29 12:10:36;;;;;;;3.13;2.00;;;23.30;62.80;;;;;;4971545;28;20186;-90
2021/06/29 12:13:05;;;;;;;4.43;2.70;;;22.60;64.70;;;;;;4978938;28;20706;-91
2021/06/29 12:15:36;;;;;;;5.07;2.80;;;21.60;71.70;;;;;;4993954;28;20206;-91
2021/06/29 12:18:02;;;;;;;5.93;3.10;;;21.00;77.20;;;;;;4991771;28;20216;-91
2021/06/29 12:20:32;;;;;;;4.88;2.95;;;20.40;80.90;;;;;;4977422;28;20405;-90
2021/06/29 12:23:00;;;;;;;4.07;3.30;;;19.80;83.60;;;;;;4993894;28;20211;-91
2021/06/29 12:25:30;;;;;;;5.50;3.65;;;19.50;89.00;;;;;;4980846;28;20281;-90
2021/06/29 12:27:57;;;;;;;4.70;3.22;;;19.40;90.40;;;;;;4994513;28;20198;-89
2021/06/29 12:30:43;;;;;;;4.95;4.05;;;19.20;92.20;;;;;;4993260;28;20267;-89
2021/06/29 12:33:24;;;;;;;4.23;3.70;;;19.00;92.80;;;;;;4994042;28;20226;-89
2021/06/29 12:35:53;;;;;;;4.77;3.63;;;18.70;95.00;;;;;;4983067;28;20199;-88
2021/06/29 12:38:22;;;;;;;4.30;3.70;;;18.70;94.50;;;;;;4979009;28;20228;-89
2021/06/29 12:40:56;;;;;;;3.27;3.00;;;18.50;96.00;;;;;;4979487;28;20655;-90
2021/06/29 12:43:29;;;;;;;4.53;3.40;;;18.60;96.00;;;;;;4994213;28;20213;-89
2021/06/29 12:45:56;;;;;;;4.80;3.10;;;18.60;95.50;;;;;;4994038;28;20224;-90
2021/06/29 12:48:23;;;;;;;4.27;2.83;;;18.60;95.70;;;;;;4991252;28;20246;-90
2021/06/29 12:51:05;;;;;;;4.23;2.73;;;18.50;94.40;;;;;;4995171;28;20194;-90
2021/06/29 12:53:30;;;;;;;3.07;2.77;;;18.50;95.20;;;;;;4995239;28;20297;-89
2021/06/29 12:56:16;;;;;;;3.00;2.43;;;18.40;94.80;;;;;;4986109;28;20192;-90